Time;durP1;ratioP1;P1;durP2;ratioP2;P2;SDS_P1;SDS_P2;PMS_P1;PMS_P2;Temp;Humidity;BMP_temperature;BMP_pressure;BME280_temperature;BME280_humidity;BME280_pressure;Samples;Min_cycle;Max_cycle;Signal;HPM_P1;HPM_P2
2023/10/11 00:01:27;;;;;;;14.50;11.30;;;;;;;10.89;100.00;97050.52;108928;1266;48785;-78
2023/10/11 00:03:59;;;;;;;12.90;10.80;;;;;;;10.92;100.00;97050.88;108975;1272;22908;-78
2023/10/11 00:06:36;;;;;;;13.40;11.20;;;;;;;10.94;100.00;97047.79;109015;1266;22526;-78
2023/10/11 00:09:16;;;;;;;13.50;11.20;;;;;;;10.97;100.00;97049.44;109010;1272;24160;-78
2023/10/11 00:11:51;;;;;;;13.30;11.50;;;;;;;10.99;100.00;97044.88;108920;1269;58377;-78
2023/10/11 00:14:23;;;;;;;14.10;11.30;;;;;;;11.01;100.00;97047.52;109001;1272;22525;-78
2023/10/11 00:16:58;;;;;;;14.70;12.40;;;;;;;11.03;100.00;97036.37;108956;1272;22518;-78
2023/10/11 00:19:30;;;;;;;14.90;12.50;;;;;;;11.07;100.00;97037.67;109002;1266;23325;-78
2023/10/11 00:22:05;;;;;;;15.80;11.20;;;;;;;11.15;100.00;97037.55;108964;1271;55604;-78
2023/10/11 00:24:38;;;;;;;12.60;10.60;;;;;;;11.18;100.00;97032.86;109132;1271;25275;-78
2023/10/11 00:27:10;;;;;;;11.70;9.70;;;;;;;11.17;100.00;97034.36;109097;1271;23800;-78
2023/10/11 00:29:42;;;;;;;14.90;11.00;;;;;;;11.11;100.00;97035.70;109106;1266;22553;-78
2023/10/11 00:32:16;;;;;;;12.90;10.60;;;;;;;11.10;100.00;97030.34;109020;1272;45722;-78
2023/10/11 00:34:49;;;;;;;14.20;12.70;;;;;;;11.14;100.00;97024.19;108962;1272;23673;-78
2023/10/11 00:37:27;;;;;;;13.10;11.70;;;;;;;11.19;100.00;97024.63;109010;1266;23862;-79
2023/10/11 00:40:00;;;;;;;13.10;11.60;;;;;;;11.24;100.00;97029.54;109033;1271;22478;-78
2023/10/11 00:42:37;;;;;;;13.50;11.90;;;;;;;11.25;100.00;97018.18;109001;1269;50992;-78
2023/10/11 00:45:16;;;;;;;13.00;11.70;;;;;;;11.26;100.00;97024.14;109101;1271;23451;-78
2023/10/11 00:47:59;;;;;;;14.90;12.40;;;;;;;11.27;100.00;97021.05;109131;1269;22578;-78
2023/10/11 00:50:49;;;;;;;15.50;13.00;;;;;;;11.29;100.00;97015.58;109066;1271;25233;-79
2023/10/11 00:53:26;;;;;;;16.70;12.40;;;;;;;11.28;100.00;97016.97;107680;1268;1794405;-78
2023/10/11 00:56:04;;;;;;;14.40;12.30;;;;;;;11.28;100.00;97015.16;109017;1272;22851;-79
2023/10/11 00:58:39;;;;;;;14.20;12.70;;;;;;;11.30;100.00;97007.14;108978;1272;22528;-78
2023/10/11 01:01:14;;;;;;;15.30;12.60;;;;;;;11.34;100.00;97011.94;108979;1266;25056;-77
2023/10/11 01:03:49;;;;;;;13.70;12.30;;;;;;;11.36;100.00;97015.11;108923;1272;36935;-77
2023/10/11 01:06:28;;;;;;;14.60;13.00;;;;;;;11.35;100.00;97009.28;108996;1266;24192;-78
2023/10/11 01:09:00;;;;;;;15.20;13.40;;;;;;;11.35;100.00;97013.10;108997;1265;24228;-77
2023/10/11 01:11:38;;;;;;;14.20;12.50;;;;;;;11.39;100.00;97018.49;108934;1266;46762;-78
2023/10/11 01:14:14;;;;;;;16.90;13.40;;;;;;;11.43;100.00;97017.31;108952;1272;22515;-78
2023/10/11 01:16:55;;;;;;;15.80;13.00;;;;;;;11.48;100.00;97014.25;108989;1272;23067;-77
2023/10/11 01:19:29;;;;;;;15.80;13.60;;;;;;;11.50;100.00;97010.36;108962;1257;25294;-78
2023/10/11 01:22:03;;;;;;;16.30;13.60;;;;;;;11.46;100.00;96995.41;107098;1272;2513612;-77
2023/10/11 01:24:34;;;;;;;17.90;12.90;;;;;;;11.54;100.00;97003.07;109060;1272;22550;-78
2023/10/11 01:27:06;;;;;;;15.60;12.40;;;;;;;11.55;100.00;96999.89;109030;1270;22515;-77
2023/10/11 01:29:39;;;;;;;14.90;13.20;;;;;;;11.54;100.00;96996.17;109054;1266;23987;-77
2023/10/11 01:32:17;;;;;;;16.80;13.80;;;;;;;11.57;100.00;97004.23;108882;1270;92648;-77
2023/10/11 01:34:49;;;;;;;15.50;13.20;;;;;;;11.56;100.00;96994.63;108943;1273;22638;-78
2023/10/11 01:37:22;;;;;;;16.40;13.30;;;;;;;11.65;100.00;96995.30;108924;1267;23925;-77
2023/10/11 01:39:53;;;;;;;14.70;13.00;;;;;;;11.73;100.00;96999.62;108976;1265;22620;-77
2023/10/11 01:42:24;;;;;;;15.10;13.10;;;;;;;11.76;100.00;96993.95;107681;1272;1715898;-77
2023/10/11 01:45:04;;;;;;;15.20;12.50;;;;;;;11.78;100.00;96995.27;108937;1267;25427;-78
2023/10/11 01:47:39;;;;;;;15.70;13.00;;;;;;;11.81;100.00;96989.55;109049;1272;22514;-77
2023/10/11 01:50:15;;;;;;;15.40;13.70;;;;;;;11.87;100.00;96989.20;108974;1265;23993;-77
2023/10/11 01:52:48;;;;;;;15.90;13.20;;;;;;;11.89;100.00;96994.86;107263;1271;2545095;-82
2023/10/11 01:55:24;;;;;;;16.00;13.40;;;;;;;11.95;100.00;96999.77;109280;1271;23742;-81
2023/10/11 01:57:57;;;;;;;13.90;12.40;;;;;;;11.99;100.00;97005.06;109286;1272;22563;-81
2023/10/11 02:00:42;;;;;;;15.30;13.60;;;;;;;11.98;100.00;96993.84;109293;1269;22518;-82
2023/10/11 02:03:20;;;;;;;14.50;12.50;;;;;;;12.07;100.00;97005.94;109173;1266;132279;-82
2023/10/11 02:05:51;;;;;;;14.10;12.60;;;;;;;12.09;100.00;97001.94;109268;1271;22504;-82
2023/10/11 02:08:25;;;;;;;15.50;12.90;;;;;;;12.09;100.00;97007.99;109283;1266;24496;-82
2023/10/11 02:11:04;;;;;;;15.10;13.00;;;;;;;12.09;100.00;96997.90;109301;1266;22523;-82
2023/10/11 02:13:39;;;;;;;16.20;12.60;;;;;;;12.08;100.00;97004.70;109250;1266;69996;-82
2023/10/11 02:16:36;;;;;;;15.50;13.60;;;;;;;12.08;100.00;97000.77;109283;1271;23250;-82
2023/10/11 02:19:23;;;;;;;17.20;13.10;;;;;;;12.10;100.00;96998.30;109301;1269;22544;-82
2023/10/11 02:21:58;;;;;;;15.30;13.40;;;;;;;12.13;100.00;97001.77;105227;1265;5268283;-82
2023/10/11 02:24:42;;;;;;;15.60;13.90;;;;;;;12.16;100.00;97004.65;109257;1266;25422;-82
2023/10/11 02:27:22;;;;;;;15.70;13.40;;;;;;;12.20;100.00;96996.48;109114;1273;22537;-82
2023/10/11 02:30:06;;;;;;;17.30;13.70;;;;;;;12.22;100.00;96991.89;109117;1266;22523;-81
2023/10/11 02:32:43;;;;;;;17.60;13.50;;;;;;;12.23;100.00;96999.48;109124;1271;67423;-82
2023/10/11 02:35:20;;;;;;;15.80;12.70;;;;;;;12.23;100.00;96997.19;109240;1272;23864;-82
2023/10/11 02:37:55;;;;;;;16.50;12.90;;;;;;;12.23;100.00;96991.09;109221;1264;26351;-81
2023/10/11 02:40:30;;;;;;;17.70;13.10;;;;;;;12.22;100.00;96995.40;109272;1266;25417;-82
2023/10/11 02:43:07;;;;;;;15.50;12.90;;;;;;;12.22;100.00;96995.14;109215;1266;44482;-82
2023/10/11 02:45:45;;;;;;;17.90;13.40;;;;;;;12.24;100.00;96992.98;109252;1266;24103;-82
2023/10/11 02:48:27;;;;;;;15.50;13.10;;;;;;;12.25;100.00;96991.34;109264;1264;24222;-82
2023/10/11 02:51:16;;;;;;;16.10;12.90;;;;;;;12.27;100.00;96992.88;109243;1269;22479;-82
2023/10/11 02:53:52;;;;;;;16.10;13.70;;;;;;;12.23;100.00;96989.02;109123;1269;122857;-82
2023/10/11 02:56:34;;;;;;;16.10;12.70;;;;;;;12.29;100.00;96996.05;109277;1269;22521;-82
2023/10/11 02:59:07;;;;;;;16.30;13.30;;;;;;;12.29;100.00;97004.88;109230;1271;22519;-82
2023/10/11 03:01:42;;;;;;;15.70;13.50;;;;;;;12.29;100.00;97003.22;109254;1271;22553;-82
2023/10/11 03:04:15;;;;;;;19.10;12.90;;;;;;;12.29;100.00;97000.19;109126;1269;22514;-82
2023/10/11 03:06:53;;;;;;;17.90;13.10;;;;;;;12.31;100.00;96998.84;109119;1266;22526;-82
2023/10/11 03:09:33;;;;;;;16.50;13.60;;;;;;;12.32;100.00;96997.23;109101;1269;22563;-82
2023/10/11 03:12:18;;;;;;;17.00;12.80;;;;;;;12.32;100.00;96996.00;107585;1267;2048280;-82
2023/10/11 03:14:54;;;;;;;16.30;13.20;;;;;;;12.34;100.00;96991.15;109141;1267;22545;-82
2023/10/11 03:17:46;;;;;;;18.30;13.80;;;;;;;12.34;100.00;96988.11;109118;1266;22783;-83
2023/10/11 03:20:36;;;;;;;17.00;12.80;;;;;;;12.34;100.00;96984.13;109102;1272;22528;-82
2023/10/11 03:23:12;;;;;;;17.20;13.40;;;;;;;12.37;100.00;96980.55;107625;1262;2011750;-82
2023/10/11 03:25:53;;;;;;;21.10;14.30;;;;;;;12.40;100.00;96980.95;109116;1266;24186;-82
2023/10/11 03:28:29;;;;;;;19.30;13.50;;;;;;;12.44;100.00;96978.62;109144;1272;22515;-83
2023/10/11 03:31:04;;;;;;;17.10;13.20;;;;;;;12.46;100.00;96980.98;109107;1265;22542;-82
2023/10/11 03:33:43;;;;;;;17.40;13.50;;;;;;;12.48;100.00;96976.77;109013;1266;119865;-82
2023/10/11 03:36:28;;;;;;;16.90;14.60;;;;;;;12.52;100.00;96981.52;106760;1265;3190162;-83
2023/10/11 03:39:08;;;;;;;17.70;14.60;;;;;;;12.55;100.00;96981.19;109138;1260;22516;-82
2023/10/11 03:41:45;;;;;;;18.50;14.30;;;;;;;12.56;100.00;96982.50;109192;1266;22513;-82
2023/10/11 03:44:20;;;;;;;16.30;13.20;;;;;;;12.55;100.00;96976.91;109111;1272;56765;-82
2023/10/11 03:46:56;;;;;;;16.20;12.90;;;;;;;12.57;100.00;96974.78;109078;1267;22538;-82
2023/10/11 03:49:50;;;;;;;19.10;13.90;;;;;;;12.57;100.00;96974.35;109112;1266;22542;-82
2023/10/11 03:52:40;;;;;;;16.60;13.90;;;;;;;12.59;100.00;96974.33;109090;1273;40665;-81
2023/10/11 03:55:20;;;;;;;17.20;13.50;;;;;;;12.60;100.00;96970.21;109198;1266;22681;-82
2023/10/11 03:57:58;;;;;;;16.70;13.50;;;;;;;12.59;100.00;96965.44;109170;1266;22565;-81
2023/10/11 04:00:46;;;;;;;20.50;14.00;;;;;;;12.64;100.00;96970.38;109181;1272;22524;-82
2023/10/11 04:03:24;;;;;;;18.00;13.90;;;;;;;12.66;100.00;96965.37;109139;1272;31758;-81
2023/10/11 04:05:58;;;;;;;15.70;13.40;;;;;;;12.70;100.00;96961.88;109223;1269;23843;-82
2023/10/11 04:08:39;;;;;;;17.50;13.40;;;;;;;12.72;100.00;96965.09;109258;1266;23352;-82
2023/10/11 04:11:30;;;;;;;19.40;13.50;;;;;;;12.74;100.00;96970.34;109254;1266;25414;-82
2023/10/11 04:14:20;;;;;;;17.40;13.70;;;;;;;12.74;100.00;96970.02;109232;1271;30593;-82
2023/10/11 04:17:14;;;;;;;16.70;13.80;;;;;;;12.77;100.00;96973.06;109214;1272;24144;-82
2023/10/11 04:20:18;;;;;;;17.80;13.60;;;;;;;12.80;100.00;96975.20;109203;1264;22703;-82
2023/10/11 04:22:57;;;;;;;17.90;13.20;;;;;;;12.79;100.00;96968.61;109163;1271;62902;-82
2023/10/11 04:25:43;;;;;;;19.40;14.90;;;;;;;12.81;100.00;96965.86;109266;1266;22685;-82
2023/10/11 04:28:24;;;;;;;17.30;14.00;;;;;;;12.81;100.00;96963.19;109255;1271;22514;-82
2023/10/11 04:33:55;;;;;;;16.60;13.60;;;;;;;12.82;100.00;96961.85;109241;1271;59206;-83
2023/10/11 04:36:42;;;;;;;18.40;13.10;;;;;;;12.83;100.00;96959.60;109268;1268;22514;-82
2023/10/11 04:39:43;;;;;;;20.40;14.90;;;;;;;12.86;100.00;96961.41;109220;1271;22517;-81
2023/10/11 04:42:28;;;;;;;16.40;12.90;;;;;;;12.90;100.00;96961.11;109170;1271;65336;-81
2023/10/11 04:45:21;;;;;;;17.10;13.40;;;;;;;12.94;100.00;96966.12;109218;1271;22624;-83
2023/10/11 04:48:00;;;;;;;16.50;13.50;;;;;;;12.98;100.00;96966.73;109242;1271;22594;-83
2023/10/11 04:50:43;;;;;;;16.10;12.10;;;;;;;13.00;100.00;96965.58;109266;1266;22515;-83
2023/10/11 04:53:32;;;;;;;18.70;12.50;;;;;;;12.99;100.00;96963.92;109135;1269;141494;-82
2023/10/11 04:59:14;;;;;;;17.50;11.70;;;;;;;13.05;100.00;96964.65;109285;1266;22539;-82
2023/10/11 05:02:02;;;;;;;17.50;12.60;;;;;;;13.04;100.00;96969.92;109252;1266;24311;-82
2023/10/11 05:04:47;;;;;;;14.90;11.60;;;;;;;13.04;100.00;96973.55;109085;1273;22563;-82
2023/10/11 05:07:21;;;;;;;14.80;12.30;;;;;;;13.03;100.00;96976.27;109104;1269;22522;-82
2023/10/11 05:10:29;;;;;;;17.20;11.90;;;;;;;13.02;100.00;96977.95;109148;1265;23960;-82
2023/10/11 05:13:05;;;;;;;16.00;11.00;;;;;;;13.04;100.00;96980.38;109113;1271;51971;-82
2023/10/11 05:15:47;;;;;;;15.80;11.80;;;;;;;13.04;100.00;96980.36;109200;1271;23355;-83
2023/10/11 05:18:24;;;;;;;15.00;10.70;;;;;;;13.04;100.00;96983.14;109222;1272;23853;-82
2023/10/11 05:21:00;;;;;;;14.10;10.10;;;;;;;13.06;100.00;96974.54;109188;1271;22515;-82
2023/10/11 05:23:52;;;;;;;14.90;10.40;;;;;;;13.10;100.00;96974.46;109147;1272;56505;-82
2023/10/11 05:26:41;;;;;;;13.10;10.00;;;;;;;13.13;100.00;96975.33;109194;1266;22567;-82
2023/10/11 05:29:24;;;;;;;14.00;10.70;;;;;;;13.14;100.00;96970.10;109249;1268;22523;-83
2023/10/11 05:32:20;;;;;;;14.90;10.70;;;;;;;13.13;100.00;96969.94;109222;1266;22514;-82
2023/10/11 05:35:19;;;;;;;14.50;10.90;;;;;;;13.15;100.00;96964.02;109202;1266;22545;-82
2023/10/11 05:52:17;;;;;;;12.50;8.90;;;;;;;13.33;100.00;96963.58;109217;1266;50423;-82
2023/10/11 05:54:55;;;;;;;11.60;8.90;;;;;;;13.40;100.00;96968.67;109218;1266;22549;-83
2023/10/11 05:57:33;;;;;;;11.30;8.10;;;;;;;13.46;100.00;96968.36;109236;1272;22986;-83
2023/10/11 06:00:18;;;;;;;13.20;8.90;;;;;;;13.51;100.00;96963.29;109219;1266;25303;-83
2023/10/11 06:02:50;;;;;;;10.30;7.80;;;;;;;13.58;100.00;96963.02;109139;1266;64527;-82
2023/10/11 06:05:23;;;;;;;12.00;7.80;;;;;;;13.65;100.00;96955.27;109212;1265;22517;-83
2023/10/11 06:08:03;;;;;;;10.50;7.80;;;;;;;13.73;100.00;96959.09;109209;1271;22547;-82
2023/10/11 06:10:50;;;;;;;10.50;7.90;;;;;;;13.81;100.00;96957.27;109212;1271;22690;-82
2023/10/11 06:13:23;;;;;;;10.70;6.90;;;;;;;13.89;100.00;96951.47;109144;1266;104771;-83
2023/10/11 06:16:02;;;;;;;10.50;7.40;;;;;;;13.97;100.00;96954.05;109259;1271;24424;-82
2023/10/11 06:18:39;;;;;;;9.50;7.00;;;;;;;14.00;100.00;96953.39;109094;1266;22639;-82
2023/10/11 06:21:24;;;;;;;9.90;6.20;;;;;;;14.07;100.00;96952.80;109348;1267;22529;-83
2023/10/11 06:23:58;;;;;;;8.60;5.80;;;;;;;14.18;100.00;96952.88;109137;1271;69060;-82
2023/10/11 06:29:32;;;;;;;10.00;5.80;;;;;;;14.38;100.00;96948.60;109226;1272;23241;-83
2023/10/11 06:32:11;;;;;;;10.30;6.30;;;;;;;14.44;100.00;96946.42;109242;1269;22469;-84
2023/10/11 06:34:50;;;;;;;8.90;5.70;;;;;;;14.49;100.00;96938.50;109232;1269;22569;-82
2023/10/11 06:37:25;;;;;;;8.60;6.10;;;;;;;14.54;100.00;96945.56;109190;1269;22690;-84
2023/10/11 06:40:20;;;;;;;8.40;5.60;;;;;;;14.59;100.00;96940.76;109172;1266;23850;-83
2023/10/11 06:42:59;;;;;;;11.80;6.30;;;;;;;14.64;100.00;96939.34;109115;1272;106054;-83
2023/10/11 06:45:40;;;;;;;8.60;6.00;;;;;;;14.66;100.00;96947.23;109255;1271;22508;-83
2023/10/11 06:48:16;;;;;;;12.70;6.20;;;;;;;14.65;100.00;96944.46;109200;1266;25266;-83
2023/10/11 06:50:47;;;;;;;9.90;6.40;;;;;;;14.67;100.00;96943.94;109237;1266;22530;-84
2023/10/11 06:53:21;;;;;;;9.40;6.60;;;;;;;14.70;100.00;96944.79;107907;1266;1742843;-83
2023/10/11 06:55:53;;;;;;;10.20;6.20;;;;;;;14.75;100.00;96942.93;109264;1269;22533;-83
2023/10/11 06:58:25;;;;;;;9.40;6.20;;;;;;;14.82;100.00;96943.02;109223;1268;22525;-82
2023/10/11 07:00:57;;;;;;;10.40;5.80;;;;;;;14.92;100.00;96936.45;109205;1268;22510;-83
2023/10/11 07:03:38;;;;;;;9.40;5.80;;;;;;;15.05;100.00;96937.89;109140;1271;112919;-83
2023/10/11 07:06:22;;;;;;;11.30;5.80;;;;;;;15.20;100.00;96934.92;109194;1266;23748;-84
2023/10/11 07:08:59;;;;;;;8.30;5.60;;;;;;;15.28;100.00;96939.50;109164;1269;22612;-84
2023/10/11 07:11:50;;;;;;;;;;;;;;;15.34;100.00;96939.05;109254;1271;22492;-84
2023/10/11 07:14:25;;;;;;;9.40;5.80;;;;;;;15.38;100.00;96943.02;109135;1271;63702;-83
2023/10/11 07:17:01;;;;;;;8.60;5.70;;;;;;;15.37;100.00;96938.02;109165;1269;22586;-83
2023/10/11 07:19:36;;;;;;;10.00;6.10;;;;;;;15.44;100.00;96942.73;109132;1272;22535;-84
2023/10/11 07:22:12;;;;;;;8.10;6.10;;;;;;;15.47;100.00;96937.80;109192;1269;22638;-83
2023/10/11 07:24:55;;;;;;;9.10;5.80;;;;;;;15.48;100.00;96935.75;109094;1271;22545;-83
2023/10/11 07:27:37;;;;;;;10.50;5.50;;;;;;;15.51;100.00;96938.95;109137;1272;24190;-83
2023/10/11 07:30:21;;;;;;;10.60;5.60;;;;;;;15.56;100.00;96945.16;109105;1266;22625;-83
2023/10/11 07:32:52;;;;;;;10.10;5.80;;;;;;;15.61;100.00;96941.27;109015;1266;57391;-83
2023/10/11 07:35:27;;;;;;;9.80;6.60;;;;;;;15.65;99.88;96943.70;109057;1273;23790;-84
2023/10/11 07:38:00;;;;;;;11.80;5.70;;;;;;;15.68;99.62;96939.13;109130;1269;22653;-82
2023/10/11 07:40:45;;;;;;;8.40;6.00;;;;;;;15.74;99.43;96937.84;109112;1273;22528;-82
2023/10/11 07:43:17;;;;;;;9.40;5.90;;;;;;;15.80;99.02;96940.39;109104;1271;33944;-83
2023/10/11 07:45:49;;;;;;;10.50;6.10;;;;;;;15.84;98.88;96942.39;109204;1272;22559;-83
2023/10/11 07:48:20;;;;;;;9.80;6.00;;;;;;;15.88;98.64;96937.95;109213;1266;22480;-83
2023/10/11 07:50:52;;;;;;;11.50;5.90;;;;;;;15.91;98.43;96936.07;109198;1269;22541;-83
2023/10/11 07:53:25;;;;;;;9.30;6.00;;;;;;;15.94;98.22;96936.21;109121;1272;31141;-83
2023/10/11 07:55:58;;;;;;;10.70;5.70;;;;;;;15.97;98.04;96932.33;109111;1269;22740;-82
2023/10/11 07:58:32;;;;;;;13.40;6.50;;;;;;;16.05;98.00;96929.05;109076;1272;25291;-82
2023/10/11 08:01:15;;;;;;;9.20;5.00;;;;;;;16.21;98.34;96928.95;109099;1272;25016;-82
2023/10/11 08:03:51;;;;;;;7.70;5.70;;;;;;;16.44;98.32;96932.71;109119;1269;40072;-82
2023/10/11 08:06:25;;;;;;;10.40;5.70;;;;;;;16.61;98.04;96935.55;109076;1266;23529;-82
2023/10/11 08:08:59;;;;;;;7.90;5.40;;;;;;;16.76;97.65;96931.47;109150;1272;22540;-83
2023/10/11 08:11:36;;;;;;;8.40;6.10;;;;;;;16.85;97.05;96929.54;109102;1272;23658;-83
2023/10/11 08:14:14;;;;;;;7.60;5.30;;;;;;;16.94;96.74;96929.67;109079;1271;108051;-82
2023/10/11 08:16:51;;;;;;;11.40;6.20;;;;;;;17.08;96.81;96929.96;109166;1269;22862;-82
2023/10/11 08:19:22;;;;;;;8.90;4.80;;;;;;;17.38;96.87;96928.24;109183;1266;22576;-82
2023/10/11 08:21:57;;;;;;;9.10;5.30;;;;;;;17.67;96.59;96930.52;109138;1269;25361;-83
2023/10/11 08:24:36;;;;;;;8.80;5.10;;;;;;;17.98;96.28;96925.88;109168;1267;57184;-83
2023/10/11 08:27:08;;;;;;;8.10;5.10;;;;;;;18.22;95.32;96921.70;109222;1267;22481;-82
2023/10/11 08:29:42;;;;;;;6.60;4.60;;;;;;;18.31;94.00;96923.98;109231;1272;25405;-82
2023/10/11 08:32:18;;;;;;;10.00;4.90;;;;;;;18.33;93.37;96922.71;106773;1269;5089565;-82
2023/10/11 08:34:51;;;;;;;11.70;5.50;;;;;;;18.25;91.89;96922.06;109325;1263;24224;-82
2023/10/11 08:37:22;;;;;;;10.40;4.90;;;;;;;18.16;91.06;96919.66;109246;1271;22513;-82
2023/10/11 08:39:54;;;;;;;8.30;5.30;;;;;;;18.19;91.56;96924.91;109250;1272;22531;-83
2023/10/11 08:42:30;;;;;;;9.80;5.30;;;;;;;18.37;91.43;96918.02;109232;1271;65914;-82
2023/10/11 08:45:03;;;;;;;10.00;5.00;;;;;;;18.25;89.54;96913.86;109230;1269;23778;-83
2023/10/11 08:47:34;;;;;;;12.90;6.10;;;;;;;18.18;90.19;96917.39;109240;1269;22567;-82
2023/10/11 08:50:17;;;;;;;8.40;4.50;;;;;;;18.16;89.94;96915.84;109183;1271;22542;-82
2023/10/11 08:52:51;;;;;;;8.20;5.30;;;;;;;18.09;89.65;96919.45;109193;1271;42561;-83
2023/10/11 08:55:24;;;;;;;10.80;5.90;;;;;;;18.05;89.58;96912.33;109233;1266;22564;-83
2023/10/11 08:57:55;;;;;;;8.90;4.90;;;;;;;18.00;89.51;96911.63;109244;1266;22657;-82
2023/10/11 09:00:31;;;;;;;10.40;4.90;;;;;;;18.13;89.95;96914.33;109295;1271;22514;-83
2023/10/11 09:03:20;;;;;;;10.80;5.20;;;;;;;18.30;89.97;96914.13;109138;1271;65092;-83
2023/10/11 09:05:58;;;;;;;11.40;5.40;;;;;;;18.49;89.97;96913.31;109232;1266;22539;-83
2023/10/11 09:08:32;;;;;;;9.60;5.00;;;;;;;18.79;89.89;96911.63;109217;1271;22508;-83
2023/10/11 09:11:28;;;;;;;8.60;5.00;;;;;;;19.00;89.21;96911.84;109217;1269;22527;-82
2023/10/11 09:14:22;;;;;;;9.60;4.70;;;;;;;19.06;88.14;96912.95;109151;1269;114199;-83
2023/10/11 09:16:57;;;;;;;7.50;4.50;;;;;;;19.19;87.69;96914.35;109220;1269;22530;-84
2023/10/11 09:19:32;;;;;;;7.50;4.50;;;;;;;19.27;86.42;96913.16;109150;1266;22514;-83
2023/10/11 09:22:18;;;;;;;10.10;4.60;;;;;;;19.24;85.97;96920.45;109212;1271;22756;-83
2023/10/11 09:25:08;;;;;;;13.30;5.50;;;;;;;19.31;85.96;96916.62;109124;1259;22548;-83
2023/10/11 09:27:54;;;;;;;9.10;5.40;;;;;;;19.44;85.56;96923.33;109246;1267;24215;-83
2023/10/11 09:30:27;;;;;;;7.70;5.00;;;;;;;19.51;84.18;96928.88;109191;1271;22651;-83
2023/10/11 09:33:15;;;;;;;11.90;4.90;;;;;;;19.41;82.30;96923.85;109198;1271;42831;-83
2023/10/11 09:35:50;;;;;;;10.30;5.60;;;;;;;19.35;82.02;96919.46;109230;1271;22489;-82
2023/10/11 09:38:24;;;;;;;9.50;5.10;;;;;;;19.30;81.68;96922.05;109192;1266;22548;-82
2023/10/11 09:40:55;;;;;;;11.80;4.90;;;;;;;19.30;82.10;96925.20;109211;1269;22643;-83
2023/10/11 09:43:32;;;;;;;12.90;5.40;;;;;;;19.36;81.61;96919.90;109150;1269;51534;-82
2023/10/11 09:46:10;;;;;;;9.10;5.40;;;;;;;19.37;81.27;96920.62;109258;1266;22598;-82
2023/10/11 09:48:51;;;;;;;8.40;4.80;;;;;;;19.46;80.91;96922.11;109217;1260;24186;-84
2023/10/11 09:51:26;;;;;;;11.10;5.30;;;;;;;19.54;80.73;96919.34;109226;1269;22647;-82
2023/10/11 09:54:05;;;;;;;10.40;5.20;;;;;;;19.55;79.70;96912.95;109208;1272;50685;-82
2023/10/11 09:56:49;;;;;;;12.10;4.90;;;;;;;19.52;79.25;96917.63;109202;1272;22956;-82
2023/10/11 09:59:43;;;;;;;10.00;4.90;;;;;;;19.53;79.34;96925.80;109221;1272;22507;-84
2023/10/11 10:02:24;;;;;;;7.80;4.90;;;;;;;19.55;79.11;96927.54;109179;1272;24360;-83
2023/10/11 10:05:08;;;;;;;10.60;4.70;;;;;;;19.57;78.87;96921.55;109196;1266;25246;-83
2023/10/11 10:07:47;;;;;;;11.40;5.40;;;;;;;19.59;78.63;96917.62;109195;1269;22521;-84
2023/10/11 10:10:25;;;;;;;11.90;5.10;;;;;;;19.59;77.94;96913.55;109184;1272;22538;-83
2023/10/11 10:13:06;;;;;;;9.70;5.30;;;;;;;19.57;77.66;96925.17;109187;1269;42869;-83
2023/10/11 10:15:51;;;;;;;11.00;4.80;;;;;;;19.57;77.38;96923.92;109216;1269;24209;-83
2023/10/11 10:18:25;;;;;;;10.40;4.90;;;;;;;19.58;77.44;96921.04;109203;1272;22756;-83
2023/10/11 10:21:04;;;;;;;11.20;4.70;;;;;;;19.66;77.48;96925.24;109232;1269;25262;-84
2023/10/11 10:23:42;;;;;;;9.90;5.50;;;;;;;19.77;77.74;96918.60;109192;1272;32755;-84
2023/10/11 10:26:38;;;;;;;;;;;;;;;19.85;77.15;96916.35;109225;1269;22489;-84
2023/10/11 10:29:16;;;;;;;9.30;4.70;;;;;;;19.90;76.98;96919.29;109208;1272;25412;-83
2023/10/11 10:32:10;;;;;;;12.60;5.30;;;;;;;19.90;76.75;96913.48;109205;1269;22518;-84
2023/10/11 10:34:46;;;;;;;10.60;5.00;;;;;;;19.94;76.34;96911.80;109110;1266;131126;-83
2023/10/11 10:37:48;;;;;;;9.90;4.40;;;;;;;20.05;76.75;96910.03;109232;1250;22522;-83
2023/10/11 10:40:26;;;;;;;11.30;4.90;;;;;;;20.21;76.82;96903.17;109190;1272;22536;-83
2023/10/11 10:43:21;;;;;;;12.10;5.10;;;;;;;20.33;76.79;96898.97;109180;1266;71066;-83
2023/10/11 10:45:59;;;;;;;11.90;4.50;;;;;;;20.44;76.08;96889.09;109245;1271;23165;-83
2023/10/11 10:48:40;;;;;;;10.70;4.90;;;;;;;20.44;74.95;96890.30;109220;1272;22646;-83
2023/10/11 10:51:11;;;;;;;;;;;;;;;20.48;75.03;96891.05;109219;1266;22552;-82
2023/10/11 10:53:50;;;;;;;6.90;4.40;;;;;;;20.52;74.00;96878.10;109183;1269;48526;-83
2023/10/11 10:56:29;;;;;;;12.20;5.40;;;;;;;20.47;72.51;96873.48;109246;1266;24456;-84
2023/10/11 10:59:11;;;;;;;9.90;4.60;;;;;;;20.37;72.94;96877.48;109195;1270;23766;-85
2023/10/11 11:01:46;;;;;;;8.70;4.30;;;;;;;20.29;72.55;96867.86;109258;1272;22587;-84
2023/10/11 11:04:20;;;;;;;11.50;4.70;;;;;;;20.28;73.19;96867.98;109179;1272;68755;-84
2023/10/11 11:06:55;;;;;;;11.00;4.50;;;;;;;20.28;73.25;96861.13;109212;1269;22548;-84
2023/10/11 11:09:27;;;;;;;6.80;4.30;;;;;;;20.25;73.74;96861.47;109180;1272;22568;-85
2023/10/11 11:12:17;;;;;;;8.80;4.50;;;;;;;20.23;73.74;96854.79;109247;1250;22538;-84
2023/10/11 11:14:59;;;;;;;7.90;4.50;;;;;;;20.25;73.78;96849.77;109122;1269;76941;-85
2023/10/11 11:17:48;;;;;;;8.00;4.70;;;;;;;20.31;73.70;96839.23;109216;1269;22818;-85
2023/10/11 11:20:32;;;;;;;9.10;5.30;;;;;;;20.47;72.77;96839.86;109198;1272;22566;-85
2023/10/11 11:23:08;;;;;;;7.40;4.30;;;;;;;20.65;71.90;96838.40;109151;1266;43994;-83
2023/10/11 11:25:41;;;;;;;10.30;4.60;;;;;;;20.73;69.03;96832.05;109208;1269;22468;-83
2023/10/11 11:28:26;;;;;;;9.20;4.70;;;;;;;20.78;68.26;96830.33;109217;1266;22520;-82
2023/10/11 11:31:13;;;;;;;9.50;4.50;;;;;;;20.80;67.06;96826.47;109218;1267;24216;-83
2023/10/11 11:34:05;;;;;;;10.30;4.70;;;;;;;20.84;66.63;96830.91;109180;1272;36551;-84
2023/10/11 11:36:47;;;;;;;11.40;5.00;;;;;;;20.89;67.14;96829.75;109231;1269;22518;-82
2023/10/11 11:39:36;;;;;;;10.70;4.60;;;;;;;20.93;66.51;96828.27;109252;1272;22710;-83
2023/10/11 11:42:18;;;;;;;9.70;5.20;;;;;;;20.94;65.87;96825.36;109173;1272;23829;-82
2023/10/11 11:44:56;;;;;;;9.70;4.40;;;;;;;20.94;66.11;96826.28;109230;1264;24517;-83
2023/10/11 11:47:29;;;;;;;8.00;4.40;;;;;;;20.97;65.84;96824.52;109248;1269;23852;-82
2023/10/11 11:50:18;;;;;;;11.30;4.80;;;;;;;20.99;65.87;96825.91;109148;1271;22532;-82
2023/10/11 11:52:50;;;;;;;7.20;4.30;;;;;;;21.02;66.48;96825.38;109151;1272;41944;-83
2023/10/11 11:55:25;;;;;;;11.50;4.60;;;;;;;20.99;66.19;96820.27;109131;1272;22604;-83
2023/10/11 11:57:57;;;;;;;9.40;4.50;;;;;;;21.02;66.78;96827.00;109070;1269;23343;-82
2023/10/11 12:00:45;;;;;;;13.50;4.90;;;;;;;21.16;67.12;96828.46;109109;1272;22520;-82
2023/10/11 12:03:23;;;;;;;7.70;4.20;;;;;;;21.23;65.67;96828.06;109013;1269;96409;-83
2023/10/11 12:05:55;;;;;;;8.60;3.90;;;;;;;21.28;66.09;96826.25;109146;1273;24289;-82
2023/10/11 12:08:31;;;;;;;11.20;4.40;;;;;;;21.34;65.18;96831.72;109140;1273;22530;-82
2023/10/11 12:11:05;;;;;;;10.60;4.50;;;;;;;21.38;64.92;96833.75;109122;1269;24201;-83
2023/10/11 12:13:39;;;;;;;14.30;4.60;;;;;;;21.43;64.89;96835.67;109039;1272;143939;-82
2023/10/11 12:16:22;;;;;;;11.70;4.00;;;;;;;21.42;65.00;96841.58;109178;1272;23494;-82
2023/10/11 12:18:59;;;;;;;10.50;4.10;;;;;;;21.52;65.70;96842.70;109089;1269;22541;-83
2023/10/11 12:21:35;;;;;;;9.70;4.60;;;;;;;21.58;64.83;96841.11;109159;1272;22522;-82
2023/10/11 12:24:14;;;;;;;11.60;4.20;;;;;;;21.53;64.64;96840.75;109023;1272;113407;-83
2023/10/11 12:26:49;;;;;;;11.40;4.80;;;;;;;21.61;65.43;96842.17;109081;1269;22536;-83
2023/10/11 12:29:22;;;;;;;9.60;4.40;;;;;;;21.65;65.02;96842.21;109117;1269;22532;-83